This is the latest recevied weather packets stored in our database for station/object N8QQQ. If no packets are shown the sender has not sent any weather packets the latest 10 day(s).
| Time | Temp. | Humidity | Pressure | Rain* | Wind** | Luminosity | Snow |
|---|---|---|---|---|---|---|---|
| 1778179673 | 3.89° C | 77% | 1009.4 hPa | 0 mm | - | 75 W/m² | - |
| 1778179370 | 4.44° C | 73% | 1009.4 hPa | 0 mm | - | 48 W/m² | - |
| 1778179067 | 6.67° C | 57% | 1009.1 hPa | 0 mm | - | 90 W/m² | - |
| 1778178764 | 6.67° C | 56% | 1009.2 hPa | 0 mm | - | 276 W/m² | - |
| 1778178461 | 6.67° C | 57% | 1009 hPa | 0 mm | - | 466 W/m² | - |
| 1778178156 | 6.67° C | 56% | 1009.3 hPa | 0 mm | - | 223 W/m² | - |
| 1778177854 | 6.11° C | 60% | 1009.3 hPa | 0 mm | - | 215 W/m² | - |
| 1778177550 | 5.56° C | 74% | 1009.3 hPa | 0 mm | - | 63 W/m² | - |
| 1778177247 | 5° C | 76% | 1009.5 hPa | 0 mm | - | 157 W/m² | - |
| 1778176944 | 3.89° C | 81% | 1009.3 hPa | 0 mm | - | 236 W/m² | - |
| 1778176639 | 2.78° C | 85% | 1009.3 hPa | 0 mm | - | 178 W/m² | - |
| 1778176336 | 2.78° C | 87% | 1009.5 hPa | 0 mm | - | 116 W/m² | - |
| 1778176034 | 2.22° C | 90% | 1009.8 hPa | 0 mm | - | 83 W/m² | - |
| 1778175731 | 2.22° C | 90% | 1010.2 hPa | 0 mm | - | 85 W/m² | - |
| 1778175428 | 2.22° C | 89% | 1010.1 hPa | 0 mm | - | 75 W/m² | - |
| 1778175125 | 2.22° C | 87% | 1010.2 hPa | 0 mm | - | 70 W/m² | - |
| 1778174821 | 2.78° C | 83% | 1010.1 hPa | 0 mm | - | 75 W/m² | - |
| 1778174519 | 3.33° C | 80% | 1010.1 hPa | 0 mm | - | 94 W/m² | - |
| 1778174213 | 5° C | 67% | 1010.1 hPa | 0 mm | - | 70 W/m² | - |
| 1778173911 | 5.56° C | 56% | 1009.8 hPa | 0 mm | - | 36 W/m² | - |
| 1778173608 | 6.67° C | 51% | 1009.4 hPa | 0 mm | - | 34 W/m² | - |
| 1778173305 | 7.78° C | 51% | 1009.4 hPa | 0 mm | - | 732 W/m² | - |
| 1778173000 | 7.22° C | 49% | 1009.3 hPa | 0 mm | - | 298 W/m² | - |
| 1778172697 | 6.11° C | 54% | 1009.4 hPa | 0 mm | - | 346 W/m² | - |
| 1778172393 | 6.67° C | 54% | 1009.7 hPa | 0 mm | - | 246 W/m² | - |
* Rain latest hour (hover to see other rain measurements)
** Current wind speed in m/s (hover to see current wind gust speed)